Time;durP1;ratioP1;P1;durP2;ratioP2;P2;SDS_P1;SDS_P2;PMS_P1;PMS_P2;Temp;Humidity;BMP_temperature;BMP_pressure;BME280_temperature;BME280_humidity;BME280_pressure;Samples;Min_cycle;Max_cycle;Signal;HPM_P1;HPM_P2
2022/10/30 00:02:17;;;;;;;15.32;7.68;;;;;;;13.66;100.00;101506.88;5249449;28;20115;-71
2022/10/30 00:04:48;;;;;;;16.20;7.88;;;;;;;13.59;100.00;101511.00;5247624;28;20033;-71
2022/10/30 00:07:20;;;;;;;15.70;7.43;;;;;;;13.54;100.00;101508.69;5246263;28;20021;-71
2022/10/30 00:09:51;;;;;;;14.00;7.85;;;;;;;13.59;100.00;101514.53;5226580;28;20072;-71
2022/10/30 00:12:22;;;;;;;15.63;7.30;;;;;;;13.59;100.00;101513.69;5251929;28;20074;-71
2022/10/30 00:14:53;;;;;;;12.57;6.93;;;;;;;13.52;100.00;101511.50;5253915;28;20091;-71
2022/10/30 00:17:25;;;;;;;15.82;7.95;;;;;;;13.52;100.00;101505.28;5253681;28;20586;-71
2022/10/30 00:19:56;;;;;;;13.20;7.45;;;;;;;13.52;100.00;101510.66;5248692;28;20043;-71
2022/10/30 00:22:27;;;;;;;15.07;7.82;;;;;;;13.46;100.00;101514.66;5252446;28;20067;-71
2022/10/30 00:24:58;;;;;;;17.05;7.85;;;;;;;13.47;100.00;101511.00;5250295;28;20518;-71
2022/10/30 00:27:30;;;;;;;16.88;7.78;;;;;;;13.33;100.00;101505.88;5242147;28;20364;-71
2022/10/30 00:30:01;;;;;;;13.68;7.50;;;;;;;13.37;100.00;101504.66;5245804;28;20580;-71
2022/10/30 00:32:32;;;;;;;13.15;7.38;;;;;;;13.45;100.00;101509.41;5250700;28;20100;-71
2022/10/30 00:35:04;;;;;;;15.55;7.35;;;;;;;13.45;100.00;101502.22;5249638;28;20585;-71
2022/10/30 00:37:35;;;;;;;16.08;7.53;;;;;;;13.38;100.00;101509.03;5250624;28;20020;-71
2022/10/30 00:40:12;;;;;;;14.63;7.35;;;;;;;13.34;100.00;101503.03;5250518;28;20079;-71
2022/10/30 00:42:44;;;;;;;17.92;7.95;;;;;;;13.34;100.00;101496.84;5247197;28;21577;-71
2022/10/30 00:45:16;;;;;;;14.70;7.60;;;;;;;13.42;100.00;101498.91;5252478;28;20428;-71
2022/10/30 00:47:58;;;;;;;13.23;6.97;;;;;;;13.36;100.00;101494.88;5251721;28;20043;-71
2022/10/30 00:50:35;;;;;;;16.73;7.57;;;;;;;13.25;100.00;101501.06;5250932;28;20064;-71
2022/10/30 00:53:12;;;;;;;14.38;7.55;;;;;;;13.29;100.00;101497.19;5250466;28;20068;-71
2022/10/30 00:55:56;;;;;;;13.93;7.68;;;;;;;13.29;100.00;101499.84;5251869;28;20032;-71
2022/10/30 00:58:43;;;;;;;16.85;7.85;;;;;;;13.19;100.00;101498.00;5254471;28;20176;-71
2022/10/30 01:01:18;;;;;;;15.88;8.00;;;;;;;13.14;100.00;101491.16;5244070;28;20029;-71
2022/10/30 01:03:54;;;;;;;13.48;7.93;;;;;;;13.08;100.00;101496.16;5244203;28;20060;-71
2022/10/30 01:06:28;;;;;;;13.73;7.20;;;;;;;13.05;100.00;101491.88;5249073;28;20035;-71
2022/10/30 01:08:59;;;;;;;13.93;7.30;;;;;;;13.14;100.00;101493.84;5248471;28;20117;-71
2022/10/30 01:11:31;;;;;;;19.50;7.72;;;;;;;13.08;100.00;101497.00;5248800;28;20147;-71
2022/10/30 01:14:06;;;;;;;13.98;6.78;;;;;;;13.03;100.00;101496.50;5245046;28;20036;-71
2022/10/30 01:16:51;;;;;;;14.30;7.82;;;;;;;12.95;100.00;101506.94;5248165;28;20033;-71
2022/10/30 01:19:53;;;;;;;16.63;7.93;;;;;;;13.00;100.00;101507.47;5251018;28;20033;-71
2022/10/30 01:22:37;;;;;;;11.93;6.90;;;;;;;12.97;100.00;101507.69;5249535;28;20048;-71
2022/10/30 01:25:45;;;;;;;13.77;7.43;;;;;;;12.95;100.00;101497.06;5246180;28;21434;-71
2022/10/30 01:28:58;;;;;;;14.75;7.18;;;;;;;12.91;100.00;101497.44;5249018;28;20459;-71
2022/10/30 01:31:46;;;;;;;14.50;7.88;;;;;;;12.91;100.00;101503.66;5239094;28;20044;-71
2022/10/30 01:34:38;;;;;;;14.32;7.85;;;;;;;12.87;100.00;101507.53;5243533;28;20036;-71
2022/10/30 01:37:18;;;;;;;12.95;7.65;;;;;;;12.85;100.00;101511.31;5248583;28;20035;-71
2022/10/30 01:39:49;;;;;;;16.70;7.70;;;;;;;12.87;100.00;101512.03;5245867;28;20448;-71
2022/10/30 01:42:42;;;;;;;15.02;8.13;;;;;;;12.86;100.00;101515.66;5250436;28;20036;-71
2022/10/30 01:45:41;;;;;;;15.35;8.45;;;;;;;12.80;100.00;101517.00;5248014;28;20049;-71
2022/10/30 01:48:32;;;;;;;15.98;7.68;;;;;;;12.82;100.00;101514.19;5249841;28;20029;-71
2022/10/30 01:51:37;;;;;;;13.10;7.88;;;;;;;12.78;100.00;101521.59;5246110;28;20428;-71
2022/10/30 01:54:32;;;;;;;18.33;7.85;;;;;;;12.74;100.00;101515.63;5248154;28;21683;-71
2022/10/30 01:57:07;;;;;;;16.77;7.88;;;;;;;12.77;100.00;101525.28;5247810;28;20083;-71
2022/10/30 01:59:41;;;;;;;18.08;8.27;;;;;;;12.73;100.00;101530.00;5249911;28;20056;-71
2022/10/30 02:02:13;;;;;;;14.35;8.75;;;;;;;12.78;100.00;101518.09;5246666;28;20410;-71
2022/10/30 02:04:44;;;;;;;16.42;8.90;;;;;;;12.66;100.00;101518.03;5252469;28;20028;-71
2022/10/30 02:07:16;;;;;;;13.95;7.45;;;;;;;12.72;100.00;101522.91;5251897;28;20459;-71
2022/10/30 02:09:50;;;;;;;15.95;7.80;;;;;;;12.74;100.00;101525.50;5247286;28;20116;-71
2022/10/30 02:12:22;;;;;;;16.98;7.90;;;;;;;12.69;100.00;101528.50;5251095;28;20064;-71
2022/10/30 02:14:57;;;;;;;14.07;7.82;;;;;;;12.61;100.00;101528.22;5251016;28;20064;-71
2022/10/30 02:17:29;;;;;;;16.10;8.68;;;;;;;12.60;100.00;101522.97;5241209;28;20434;-71
2022/10/30 02:20:00;;;;;;;13.40;7.78;;;;;;;12.56;100.00;101517.00;5246761;28;20040;-71
2022/10/30 02:22:31;;;;;;;14.75;8.40;;;;;;;12.55;100.00;101516.13;5245785;28;20060;-71
2022/10/30 02:25:03;;;;;;;14.13;8.13;;;;;;;12.54;100.00;101527.84;5248467;28;20498;-71
2022/10/30 02:27:34;;;;;;;12.95;7.30;;;;;;;12.51;100.00;101528.03;5253048;28;20362;-71
2022/10/30 02:30:06;;;;;;;14.70;8.02;;;;;;;12.55;100.00;101534.03;5241647;28;20102;-71
2022/10/30 02:32:38;;;;;;;18.65;7.90;;;;;;;12.57;100.00;101533.91;5247631;28;20518;-71
2022/10/30 02:35:09;;;;;;;15.25;8.27;;;;;;;12.51;100.00;101525.38;5245225;28;21852;-70
2022/10/30 02:37:40;;;;;;;13.25;8.00;;;;;;;12.56;100.00;101533.06;5241915;28;20029;-70
2022/10/30 02:40:12;;;;;;;13.63;7.47;;;;;;;12.45;100.00;101531.19;5244401;28;20076;-70
2022/10/30 02:42:43;;;;;;;13.32;8.07;;;;;;;12.41;100.00;101543.09;5242880;28;20036;-71
2022/10/30 02:45:14;;;;;;;17.20;8.20;;;;;;;12.42;100.00;101536.75;5245933;28;20021;-71
2022/10/30 02:47:46;;;;;;;14.48;7.82;;;;;;;12.50;100.00;101541.53;5244349;28;20116;-71
2022/10/30 02:50:17;;;;;;;11.80;8.00;;;;;;;12.46;100.00;101540.06;5244953;28;20122;-71
2022/10/30 02:52:49;;;;;;;16.75;8.88;;;;;;;12.39;100.00;101536.09;5251587;28;20487;-71
2022/10/30 02:55:20;;;;;;;17.83;8.40;;;;;;;12.40;100.00;101537.84;5250664;28;20103;-71
2022/10/30 02:57:52;;;;;;;13.82;7.63;;;;;;;12.46;100.00;101534.69;5247546;28;20025;-71
2022/10/30 03:00:23;;;;;;;14.63;8.05;;;;;;;12.41;100.00;101539.56;5243721;28;20037;-71
2022/10/30 03:02:55;;;;;;;19.60;8.02;;;;;;;12.35;100.00;101535.50;5248435;28;20024;-70
2022/10/30 03:05:27;;;;;;;17.23;8.63;;;;;;;12.36;100.00;101532.69;5245078;28;20032;-71
2022/10/30 03:07:58;;;;;;;20.20;9.35;;;;;;;12.36;100.00;101532.69;5246588;28;20115;-71
2022/10/30 03:10:29;;;;;;;19.40;8.38;;;;;;;12.34;100.00;101531.09;5246598;28;20383;-70
2022/10/30 03:13:00;;;;;;;14.02;8.82;;;;;;;12.40;100.00;101524.44;5248438;28;20029;-71
2022/10/30 03:15:32;;;;;;;15.90;8.90;;;;;;;12.43;100.00;101529.59;5246989;28;20029;-70
2022/10/30 03:18:03;;;;;;;16.05;8.45;;;;;;;12.29;100.00;101520.75;5252425;28;20017;-70
2022/10/30 03:20:34;;;;;;;16.77;8.38;;;;;;;12.32;100.00;101525.00;5249220;28;20148;-70
2022/10/30 03:23:06;;;;;;;16.52;8.68;;;;;;;12.48;100.00;101519.38;5242800;28;20086;-70
2022/10/30 03:25:37;;;;;;;16.67;8.65;;;;;;;12.31;100.00;101524.16;5252549;28;20202;-71
2022/10/30 03:28:08;;;;;;;12.60;8.35;;;;;;;12.38;100.00;101524.56;5247399;28;20071;-70
2022/10/30 03:30:39;;;;;;;16.58;9.05;;;;;;;12.31;100.00;101529.53;5250476;28;20415;-70
2022/10/30 03:33:11;;;;;;;15.77;9.15;;;;;;;12.42;100.00;101527.88;5251025;28;20479;-70
2022/10/30 03:35:45;;;;;;;15.93;8.07;;;;;;;12.38;100.00;101521.88;5242719;28;20486;-70
2022/10/30 03:38:16;;;;;;;13.20;7.60;;;;;;;12.32;100.00;101531.22;5251414;28;20032;-71
2022/10/30 03:40:47;;;;;;;14.18;7.60;;;;;;;12.36;100.00;101523.81;5246910;28;20064;-70
2022/10/30 03:43:19;;;;;;;19.25;8.60;;;;;;;12.35;100.00;101519.44;5254791;28;20448;-70
2022/10/30 03:45:52;;;;;;;12.55;8.43;;;;;;;12.28;100.00;101529.72;5245567;28;20395;-70
2022/10/30 03:48:26;;;;;;;15.95;8.55;;;;;;;12.26;100.00;101534.34;5243979;28;20033;-71
2022/10/30 03:50:59;;;;;;;16.88;9.43;;;;;;;12.27;100.00;101536.06;5247099;28;20052;-70
2022/10/30 03:53:30;;;;;;;14.63;9.68;;;;;;;12.26;100.00;101537.03;5252670;28;20036;-71
2022/10/30 03:56:03;;;;;;;18.35;11.40;;;;;;;12.39;100.00;101537.00;5249325;28;20032;-70
2022/10/30 03:58:34;;;;;;;22.00;13.68;;;;;;;12.28;100.00;101535.09;5247763;28;20036;-70
2022/10/30 04:01:06;;;;;;;21.67;11.57;;;;;;;12.23;100.00;101534.56;5247638;28;20043;-70
2022/10/30 04:03:37;;;;;;;16.90;10.75;;;;;;;12.21;100.00;101536.50;5250464;28;20301;-70
2022/10/30 04:06:09;;;;;;;15.50;9.90;;;;;;;12.22;100.00;101542.72;5248881;28;20052;-70
2022/10/30 04:08:40;;;;;;;17.35;10.13;;;;;;;12.21;100.00;101539.16;5250226;28;20033;-70
2022/10/30 04:11:11;;;;;;;17.05;9.52;;;;;;;12.17;100.00;101548.38;5250524;28;20025;-70
2022/10/30 04:13:42;;;;;;;15.18;8.18;;;;;;;12.23;100.00;101552.44;5251843;28;20028;-70
2022/10/30 04:16:14;;;;;;;15.07;8.32;;;;;;;12.21;100.00;101544.50;5246697;28;20024;-70
2022/10/30 04:18:45;;;;;;;12.73;8.93;;;;;;;12.19;100.00;101530.41;5234236;28;20159;-70
2022/10/30 04:21:16;;;;;;;16.23;8.85;;;;;;;12.13;100.00;101542.38;5252188;28;20079;-70
2022/10/30 04:23:48;;;;;;;15.95;8.90;;;;;;;12.16;100.00;101530.63;5256036;28;20506;-70
2022/10/30 04:26:19;;;;;;;17.45;9.00;;;;;;;12.14;100.00;101536.09;5251986;28;20060;-71
2022/10/30 04:28:50;;;;;;;13.38;8.32;;;;;;;12.13;100.00;101538.88;5253990;28;20047;-70
2022/10/30 04:31:22;;;;;;;13.95;8.27;;;;;;;12.08;100.00;101532.97;5245614;28;20138;-70
2022/10/30 04:33:53;;;;;;;16.48;7.85;;;;;;;12.14;100.00;101545.94;5250790;28;20102;-70
2022/10/30 04:36:31;;;;;;;16.55;8.75;;;;;;;12.05;100.00;101535.91;5249047;28;20495;-70
2022/10/30 04:39:03;;;;;;;17.42;8.52;;;;;;;12.09;100.00;101530.22;5248899;28;20062;-70
2022/10/30 04:41:34;;;;;;;17.33;8.63;;;;;;;12.09;100.00;101515.97;5247488;28;20040;-70
2022/10/30 04:44:05;;;;;;;17.58;8.32;;;;;;;12.13;100.00;101522.81;5252825;28;20035;-71
2022/10/30 04:46:37;;;;;;;15.50;7.60;;;;;;;12.15;100.00;101523.56;5247926;28;20079;-70
2022/10/30 04:49:08;;;;;;;17.77;8.10;;;;;;;12.14;100.00;101519.19;5249285;28;20712;-70
2022/10/30 04:51:39;;;;;;;16.48;8.38;;;;;;;12.16;100.00;101501.22;5246470;28;20615;-70
2022/10/30 04:54:10;;;;;;;18.52;8.05;;;;;;;12.17;100.00;101500.22;5246699;28;20118;-70
2022/10/30 04:56:42;;;;;;;16.60;8.75;;;;;;;12.25;100.00;101497.00;5252869;28;20100;-70
2022/10/30 04:59:13;;;;;;;17.17;9.25;;;;;;;12.16;100.00;101503.88;5253238;28;20044;-70
2022/10/30 05:01:44;;;;;;;16.98;9.15;;;;;;;12.13;100.00;101510.28;5251821;28;20033;-70
2022/10/30 05:04:15;;;;;;;15.27;8.38;;;;;;;12.15;100.00;101505.69;5251468;28;20090;-70
2022/10/30 05:06:47;;;;;;;16.38;8.63;;;;;;;12.15;100.00;101510.19;5249445;28;20456;-70
2022/10/30 05:09:18;;;;;;;15.38;8.00;;;;;;;12.10;100.00;101507.84;5244674;28;20033;-70
2022/10/30 05:11:49;;;;;;;13.27;8.30;;;;;;;12.13;100.00;101504.94;5243861;28;20026;-70
2022/10/30 05:14:20;;;;;;;14.90;8.45;;;;;;;12.08;100.00;101501.75;5249481;28;20388;-70
2022/10/30 05:16:53;;;;;;;14.57;9.05;;;;;;;12.15;100.00;101507.50;5245431;28;20599;-70
2022/10/30 05:19:24;;;;;;;15.18;8.48;;;;;;;12.05;100.00;101504.66;5242827;28;20083;-70
2022/10/30 05:21:56;;;;;;;16.17;8.77;;;;;;;12.05;100.00;101512.66;5245958;28;20104;-70
2022/10/30 05:24:27;;;;;;;14.30;8.18;;;;;;;12.12;100.00;101515.78;5245922;28;20021;-70
2022/10/30 05:26:58;;;;;;;17.02;8.55;;;;;;;12.11;100.00;101506.03;5250061;28;20029;-70
2022/10/30 05:29:29;;;;;;;18.67;8.48;;;;;;;12.05;100.00;101514.50;5248605;28;20066;-70
2022/10/30 05:32:01;;;;;;;12.55;8.15;;;;;;;11.97;100.00;101523.06;5253664;28;20035;-70
2022/10/30 05:34:32;;;;;;;16.23;7.70;;;;;;;12.07;100.00;101525.94;5248586;28;20025;-70
2022/10/30 05:37:03;;;;;;;16.02;8.05;;;;;;;11.95;100.00;101533.88;5249688;28;20033;-71
2022/10/30 05:39:34;;;;;;;13.90;8.32;;;;;;;11.95;100.00;101519.66;5247475;28;20060;-70
2022/10/30 05:42:06;;;;;;;15.02;8.38;;;;;;;11.90;100.00;101509.28;5248901;28;20522;-70
2022/10/30 05:44:37;;;;;;;19.92;8.02;;;;;;;11.92;100.00;101517.19;5253342;28;20029;-70
2022/10/30 05:47:10;;;;;;;13.32;7.38;;;;;;;11.86;100.00;101518.44;5247478;28;20031;-70
2022/10/30 05:49:41;;;;;;;16.58;8.15;;;;;;;11.85;100.00;101514.09;5247645;28;20041;-70
2022/10/30 05:52:12;;;;;;;17.27;8.05;;;;;;;11.76;100.00;101512.06;5253755;28;20049;-70
2022/10/30 05:54:44;;;;;;;16.83;7.93;;;;;;;11.84;100.00;101514.19;5234169;28;20033;-70
2022/10/30 05:57:15;;;;;;;13.68;7.68;;;;;;;11.75;100.00;101510.34;5251389;28;20028;-70
2022/10/30 05:59:46;;;;;;;13.20;8.00;;;;;;;11.68;100.00;101509.94;5252158;28;20085;-70
2022/10/30 06:02:17;;;;;;;14.63;8.05;;;;;;;11.64;100.00;101507.56;5250453;28;20036;-70
2022/10/30 06:04:49;;;;;;;16.20;8.25;;;;;;;11.62;100.00;101515.72;5249611;28;20083;-70
2022/10/30 06:07:20;;;;;;;16.35;8.80;;;;;;;11.62;100.00;101513.03;5250568;28;20025;-70
2022/10/30 06:09:51;;;;;;;12.60;7.60;;;;;;;11.62;100.00;101512.16;5247845;28;20138;-70
2022/10/30 06:12:23;;;;;;;11.35;7.30;;;;;;;11.56;100.00;101511.66;5251749;28;20171;-70
2022/10/30 06:14:54;;;;;;;12.20;7.97;;;;;;;11.54;100.00;101516.25;5245333;28;20033;-70
2022/10/30 06:17:25;;;;;;;13.88;7.70;;;;;;;11.55;100.00;101511.75;5248087;28;20402;-70
2022/10/30 06:19:56;;;;;;;15.23;8.25;;;;;;;11.52;100.00;101518.16;5252123;28;20474;-70
2022/10/30 06:22:28;;;;;;;14.88;8.05;;;;;;;11.52;100.00;101510.13;5249938;28;20753;-70
2022/10/30 06:24:59;;;;;;;15.13;7.82;;;;;;;11.46;100.00;101507.88;5247255;28;20102;-70
2022/10/30 06:27:33;;;;;;;15.15;8.43;;;;;;;11.42;100.00;101511.75;5246487;28;20036;-70
2022/10/30 06:30:05;;;;;;;15.90;8.93;;;;;;;11.38;100.00;101502.22;5247217;28;20029;-70
2022/10/30 06:32:36;;;;;;;15.57;8.10;;;;;;;11.42;100.00;101503.72;5244115;28;20032;-70
2022/10/30 06:35:08;;;;;;;14.13;8.23;;;;;;;11.39;100.00;101509.31;5241978;28;20045;-70
2022/10/30 06:37:47;;;;;;;14.20;7.85;;;;;;;11.42;100.00;101510.88;5239715;28;20040;-70
2022/10/30 06:40:19;;;;;;;13.32;8.43;;;;;;;11.31;100.00;101508.94;5243454;28;20041;-71
2022/10/30 06:42:51;;;;;;;17.38;8.40;;;;;;;11.46;100.00;101515.91;5243461;28;20040;-70
2022/10/30 06:45:23;;;;;;;17.48;8.52;;;;;;;11.30;100.00;101508.09;5241211;28;20112;-70
2022/10/30 06:47:55;;;;;;;14.82;8.88;;;;;;;11.40;100.00;101508.31;5242660;28;20029;-70
2022/10/30 06:50:26;;;;;;;15.05;8.38;;;;;;;11.42;100.00;101513.56;5244750;28;20077;-70
2022/10/30 06:52:57;;;;;;;14.50;8.15;;;;;;;11.40;100.00;101510.16;5243882;28;20037;-70
2022/10/30 06:55:29;;;;;;;17.15;8.32;;;;;;;11.46;100.00;101505.22;5244754;28;20253;-70
2022/10/30 06:58:00;;;;;;;15.55;8.20;;;;;;;11.30;100.00;101500.09;5244411;28;20018;-70
2022/10/30 07:00:31;;;;;;;16.98;8.88;;;;;;;11.36;100.00;101491.66;5246006;28;20028;-70
2022/10/30 07:03:03;;;;;;;18.02;9.13;;;;;;;11.44;100.00;101490.25;5249725;28;20069;-70
2022/10/30 07:05:34;;;;;;;17.33;8.63;;;;;;;11.38;100.00;101488.88;5247004;28;20068;-70
2022/10/30 07:08:05;;;;;;;14.15;8.32;;;;;;;11.32;100.00;101487.47;5241129;28;20021;-70
2022/10/30 07:10:37;;;;;;;18.15;9.07;;;;;;;11.35;100.00;101495.28;5250008;28;20028;-70
2022/10/30 07:13:08;;;;;;;17.35;9.38;;;;;;;11.34;100.00;101492.72;5250625;28;20094;-70
2022/10/30 07:15:40;;;;;;;17.73;9.40;;;;;;;11.47;100.00;101495.41;5248285;28;20022;-70
2022/10/30 07:18:11;;;;;;;16.98;8.80;;;;;;;11.49;100.00;101488.13;5248978;28;20269;-70
2022/10/30 07:20:42;;;;;;;16.27;9.05;;;;;;;11.61;100.00;101492.59;5252047;28;20518;-70
2022/10/30 07:23:14;;;;;;;17.10;9.02;;;;;;;11.53;100.00;101490.47;5251310;28;20086;-70
2022/10/30 07:25:45;;;;;;;17.85;9.00;;;;;;;11.48;100.00;101499.78;5248904;28;20438;-70
2022/10/30 07:28:16;;;;;;;17.00;9.45;;;;;;;11.51;100.00;101500.41;5256539;28;20021;-70
2022/10/30 07:30:47;;;;;;;15.15;9.00;;;;;;;11.51;100.00;101496.91;5255889;28;20064;-70
2022/10/30 07:33:19;;;;;;;18.08;9.20;;;;;;;11.53;100.00;101494.97;5242451;28;20376;-70
2022/10/30 07:35:50;;;;;;;15.95;8.95;;;;;;;11.65;100.00;101499.44;5247737;28;20459;-70
2022/10/30 07:38:21;;;;;;;18.67;9.68;;;;;;;11.61;100.00;101518.47;5247800;28;20463;-70
2022/10/30 07:40:53;;;;;;;15.73;9.60;;;;;;;11.59;100.00;101513.25;5221843;28;20059;-70
2022/10/30 07:43:24;;;;;;;15.65;9.13;;;;;;;11.63;100.00;101506.72;5254524;28;20108;-70
2022/10/30 07:45:56;;;;;;;19.52;9.95;;;;;;;11.59;100.00;101494.53;5254046;28;20029;-70
2022/10/30 07:48:27;;;;;;;15.52;9.77;;;;;;;11.62;100.00;101494.31;5246485;28;20025;-69
2022/10/30 07:50:58;;;;;;;18.75;10.13;;;;;;;11.69;100.00;101497.41;5247687;28;20108;-70
2022/10/30 07:53:30;;;;;;;17.13;9.13;;;;;;;11.68;100.00;101487.69;5247302;28;20406;-70
2022/10/30 07:56:01;;;;;;;16.73;9.60;;;;;;;11.80;100.00;101497.50;5248536;28;20032;-70
2022/10/30 07:58:32;;;;;;;17.58;10.00;;;;;;;11.80;100.00;101502.84;5244893;28;20044;-70
2022/10/30 08:01:04;;;;;;;15.52;9.32;;;;;;;11.74;100.00;101500.63;5246089;28;20114;-71
2022/10/30 08:03:35;;;;;;;17.08;10.00;;;;;;;11.81;100.00;101495.69;5248223;28;20036;-70
2022/10/30 08:06:06;;;;;;;19.85;9.98;;;;;;;11.93;100.00;101495.69;5247250;28;20029;-70
2022/10/30 08:08:37;;;;;;;15.63;9.10;;;;;;;11.88;100.00;101496.94;5254821;28;20029;-70
2022/10/30 08:11:09;;;;;;;17.50;10.10;;;;;;;11.93;100.00;101493.03;5255069;28;20120;-70
2022/10/30 08:13:40;;;;;;;15.32;9.82;;;;;;;11.93;100.00;101492.16;5252993;28;20040;-70
2022/10/30 08:16:11;;;;;;;16.60;9.18;;;;;;;12.07;100.00;101493.84;5255881;28;20022;-70
2022/10/30 08:18:43;;;;;;;18.15;9.75;;;;;;;11.99;100.00;101480.19;5254087;28;20020;-70
2022/10/30 08:21:14;;;;;;;17.55;10.07;;;;;;;12.09;100.00;101475.88;5255913;28;20051;-70
2022/10/30 08:23:45;;;;;;;17.33;10.25;;;;;;;12.12;100.00;101484.53;5256898;28;20028;-70
2022/10/30 08:26:17;;;;;;;18.52;9.35;;;;;;;12.05;100.00;101490.44;5251916;28;20028;-70
2022/10/30 08:28:48;;;;;;;18.10;8.93;;;;;;;12.24;100.00;101500.66;5255018;28;20037;-70
2022/10/30 08:31:19;;;;;;;15.27;8.80;;;;;;;12.21;100.00;101508.88;5260042;28;20399;-70
2022/10/30 08:33:50;;;;;;;14.27;9.13;;;;;;;12.40;100.00;101511.06;5256900;28;20036;-70
2022/10/30 08:36:22;;;;;;;21.13;9.48;;;;;;;12.39;100.00;101507.56;5255173;28;20037;-70
2022/10/30 08:38:53;;;;;;;15.65;9.38;;;;;;;12.45;100.00;101495.53;5252495;28;20498;-70
2022/10/30 08:41:24;;;;;;;14.00;9.07;;;;;;;12.44;100.00;101494.66;5254742;28;20043;-70
2022/10/30 08:43:55;;;;;;;19.08;9.50;;;;;;;12.58;100.00;101493.66;5257116;28;20037;-70
2022/10/30 08:46:27;;;;;;;20.13;8.73;;;;;;;12.63;100.00;101488.78;5254377;28;20040;-70
2022/10/30 08:48:58;;;;;;;15.30;8.77;;;;;;;12.70;100.00;101499.91;5253063;28;20375;-70
2022/10/30 08:51:33;;;;;;;12.80;8.52;;;;;;;12.69;100.00;101498.19;5249395;28;20048;-70
2022/10/30 08:54:04;;;;;;;15.07;8.88;;;;;;;12.76;100.00;101496.78;5254556;28;20082;-70
2022/10/30 08:56:35;;;;;;;18.10;8.82;;;;;;;12.93;100.00;101498.19;5258598;28;20033;-70
2022/10/30 08:59:07;;;;;;;14.38;8.63;;;;;;;13.01;100.00;101498.44;5257570;28;20025;-70
2022/10/30 09:01:38;;;;;;;22.10;9.85;;;;;;;13.11;100.00;101502.09;5254414;28;20029;-70
2022/10/30 09:04:09;;;;;;;16.05;8.57;;;;;;;12.93;100.00;101495.50;5250440;28;20108;-70
2022/10/30 09:06:40;;;;;;;15.07;8.40;;;;;;;13.13;100.00;101494.84;5252351;28;20459;-70
2022/10/30 09:09:13;;;;;;;16.65;9.40;;;;;;;13.31;100.00;101486.38;5253125;28;20029;-69
2022/10/30 09:11:47;;;;;;;16.38;8.07;;;;;;;13.40;100.00;101484.78;5256332;28;20048;-70
2022/10/30 09:14:19;;;;;;;17.60;8.40;;;;;;;13.40;100.00;101480.28;5231389;28;20533;-69
2022/10/30 09:16:50;;;;;;;14.85;8.52;;;;;;;13.48;100.00;101476.97;5254153;28;20108;-70
2022/10/30 09:19:21;;;;;;;12.98;8.45;;;;;;;13.66;100.00;101480.06;5253769;28;20032;-70
2022/10/30 09:21:52;;;;;;;17.50;8.05;;;;;;;13.89;100.00;101476.38;5254596;28;20072;-70
2022/10/30 09:24:24;;;;;;;17.58;8.10;;;;;;;13.89;100.00;101475.53;5235222;28;20489;-70
2022/10/30 09:26:55;;;;;;;12.95;7.55;;;;;;;13.92;100.00;101480.63;5255104;28;20067;-70
2022/10/30 09:29:26;;;;;;;16.08;7.57;;;;;;;14.08;100.00;101485.63;5253095;28;20035;-70
2022/10/30 09:31:59;;;;;;;16.23;7.82;;;;;;;14.30;100.00;101479.34;5252302;28;20124;-70
2022/10/30 09:34:30;;;;;;;15.85;8.20;;;;;;;14.20;100.00;101473.03;5249947;28;20033;-70
2022/10/30 09:37:01;;;;;;;16.80;7.72;;;;;;;14.28;100.00;101481.31;5254556;28;20082;-70
2022/10/30 09:39:33;;;;;;;13.43;7.75;;;;;;;14.45;100.00;101487.97;5253927;28;20509;-70
2022/10/30 09:42:35;;;;;;;14.85;7.90;;;;;;;14.42;100.00;101478.34;5256657;28;20095;-70
2022/10/30 09:45:06;;;;;;;14.77;7.40;;;;;;;14.50;100.00;101485.78;5253845;28;20065;-70
2022/10/30 09:47:43;;;;;;;16.33;7.63;;;;;;;14.49;100.00;101494.78;5250975;28;20474;-70
2022/10/30 09:50:28;;;;;;;16.38;7.60;;;;;;;14.79;100.00;101504.00;5253962;28;20029;-70
2022/10/30 09:53:06;;;;;;;;;;;;;;;14.65;100.00;101516.75;5254641;28;20041;-70
2022/10/30 09:56:09;;;;;;;13.23;7.38;;;;;;;14.66;100.00;101507.72;5251435;28;19916;-70
2022/10/30 09:59:15;;;;;;;13.52;7.60;;;;;;;14.62;100.00;101514.31;5249217;28;20075;-71
2022/10/30 10:02:00;;;;;;;13.63;7.22;;;;;;;14.78;100.00;101521.09;5247845;28;20033;-70
2022/10/30 10:04:43;;;;;;;18.02;6.80;;;;;;;14.73;100.00;101516.13;5250773;28;20388;-70
2022/10/30 10:07:22;;;;;;;16.23;7.45;;;;;;;14.78;100.00;101511.19;5250969;28;20022;-70
2022/10/30 10:10:01;;;;;;;13.77;7.03;;;;;;;14.77;100.00;101501.44;5252379;28;20040;-71
2022/10/30 10:12:39;;;;;;;14.88;7.03;;;;;;;14.74;100.00;101503.53;5255025;28;20021;-70
2022/10/30 10:15:39;;;;;;;15.43;7.75;;;;;;;14.79;100.00;101501.31;5252011;28;20024;-70
2022/10/30 10:18:19;;;;;;;12.32;7.07;;;;;;;14.88;100.00;101505.91;5253556;28;20032;-70
2022/10/30 10:20:55;;;;;;;11.30;6.93;;;;;;;14.87;100.00;101499.69;5244811;28;20476;-71
2022/10/30 10:23:46;;;;;;;13.00;6.72;;;;;;;14.88;100.00;101497.84;5250691;28;20359;-70
2022/10/30 10:26:28;;;;;;;16.98;7.60;;;;;;;14.92;100.00;101499.31;5248052;28;20162;-71
2022/10/30 10:29:05;;;;;;;15.10;7.30;;;;;;;15.00;100.00;101496.81;5252493;28;20181;-72
2022/10/30 10:31:53;;;;;;;13.98;7.25;;;;;;;15.13;100.00;101493.94;5245807;28;20497;-71
2022/10/30 10:34:46;;;;;;;12.57;6.50;;;;;;;15.20;100.00;101488.88;5249150;28;20025;-70
2022/10/30 10:37:47;;;;;;;14.73;6.85;;;;;;;15.24;100.00;101490.31;5250704;28;20106;-70
2022/10/30 10:40:35;;;;;;;13.27;6.57;;;;;;;15.23;100.00;101481.41;5249285;28;20108;-70
2022/10/30 10:43:20;;;;;;;15.80;6.75;;;;;;;15.36;100.00;101474.97;5247736;28;20334;-70
2022/10/30 10:46:09;;;;;;;19.00;7.18;;;;;;;15.42;100.00;101480.69;5243596;28;20033;-70
2022/10/30 10:48:56;;;;;;;13.40;7.00;;;;;;;15.47;100.00;101483.81;5245117;28;20483;-70
2022/10/30 10:51:35;;;;;;;15.05;6.72;;;;;;;15.44;100.00;101480.53;5247268;28;20541;-72
2022/10/30 10:54:15;;;;;;;12.27;6.85;;;;;;;15.49;100.00;101487.22;5251060;28;20032;-70
2022/10/30 10:56:49;;;;;;;17.33;7.15;;;;;;;15.69;100.00;101492.69;5249530;28;20063;-70
2022/10/30 10:59:21;;;;;;;;;;;;;;;15.56;100.00;101489.38;5247309;28;20036;-70
2022/10/30 11:02:01;;;;;;;14.88;6.85;;;;;;;15.48;100.00;101498.13;5248007;28;19916;-70
2022/10/30 11:04:42;;;;;;;14.02;6.18;;;;;;;15.54;100.00;101499.41;5252764;28;20544;-70
2022/10/30 11:07:23;;;;;;;16.75;7.00;;;;;;;15.58;100.00;101487.41;5245961;28;20108;-70
2022/10/30 11:09:56;;;;;;;14.65;6.53;;;;;;;15.64;100.00;101476.94;5248693;28;20356;-70
2022/10/30 11:12:30;;;;;;;16.50;6.68;;;;;;;15.83;100.00;101481.59;5242507;28;20112;-70
2022/10/30 11:15:18;;;;;;;17.65;6.45;;;;;;;15.73;100.00;101478.00;5255812;28;20025;-70
2022/10/30 11:17:59;;;;;;;14.85;6.32;;;;;;;15.87;100.00;101476.78;5252079;28;20431;-70
2022/10/30 11:21:09;;;;;;;15.70;6.13;;;;;;;15.83;100.00;101468.13;5249473;28;20513;-70
2022/10/30 11:23:43;;;;;;;12.20;5.97;;;;;;;16.08;100.00;101463.25;5205938;28;20448;-69
2022/10/30 11:26:17;;;;;;;12.00;5.60;;;;;;;16.03;100.00;101465.50;5254335;28;20044;-69
2022/10/30 11:28:49;;;;;;;12.07;5.95;;;;;;;15.94;100.00;101466.34;5251284;28;20029;-70
2022/10/30 11:31:29;;;;;;;15.35;6.28;;;;;;;16.12;100.00;101475.44;5252446;28;20036;-70
2022/10/30 11:34:23;;;;;;;10.60;6.00;;;;;;;16.04;100.00;101477.97;5253926;28;20033;-70
2022/10/30 11:36:54;;;;;;;12.32;6.13;;;;;;;16.21;100.00;101480.00;5242888;28;20037;-70
2022/10/30 11:39:28;;;;;;;16.13;6.30;;;;;;;16.35;100.00;101480.59;5246835;28;20036;-70
2022/10/30 11:42:16;;;;;;;13.15;5.97;;;;;;;16.34;100.00;101474.34;5248493;28;20033;-70
2022/10/30 11:44:49;;;;;;;14.02;6.30;;;;;;;16.27;100.00;101474.03;5249822;28;20017;-70